Time;durP1;ratioP1;P1;durP2;ratioP2;P2;SDS_P1;SDS_P2;PMS_P1;PMS_P2;Temp;Humidity;BMP_temperature;BMP_pressure;BME280_temperature;BME280_humidity;BME280_pressure;Samples;Min_cycle;Max_cycle;Signal;HPM_P1;HPM_P2
2021/04/25 00:00:26;;;;;;;7.50;4.10;;;;;;;9.49;60.28;99062.47;4720625;29;102919;-73
2021/04/25 00:02:53;;;;;;;4.40;3.60;;;;;;;9.70;59.00;99070.84;4722059;29;104044;-73
2021/04/25 00:05:22;;;;;;;5.33;4.10;;;;;;;9.73;58.97;99071.50;4724809;29;104909;-73
2021/04/25 00:07:49;;;;;;;3.83;3.10;;;;;;;9.88;58.19;99065.22;4720412;29;104345;-76
2021/04/25 00:10:17;;;;;;;3.83;2.80;;;;;;;9.90;58.04;99068.63;4721722;29;103135;-73
2021/04/25 00:12:45;;;;;;;3.93;2.70;;;;;;;9.98;58.11;99075.22;4727140;29;102754;-75
2021/04/25 00:15:15;;;;;;;5.57;3.57;;;;;;;9.94;58.42;99079.00;4719604;29;104747;-74
2021/04/25 00:17:43;;;;;;;4.33;3.33;;;;;;;9.94;57.46;99069.28;4721788;29;103902;-75
2021/04/25 00:20:12;;;;;;;3.67;2.70;;;;;;;9.99;57.42;99066.34;4721461;29;103121;-74
2021/04/25 00:22:39;;;;;;;5.73;2.83;;;;;;;10.05;57.28;99071.25;4722720;29;103631;-73
2021/04/25 00:25:08;;;;;;;2.67;2.43;;;;;;;9.91;58.19;99065.03;4721850;29;104403;-73
2021/04/25 00:27:35;;;;;;;6.63;3.93;;;;;;;9.82;58.80;99070.88;4721463;29;104235;-73
2021/04/25 00:30:05;;;;;;;3.70;2.90;;;;;;;9.69;58.66;99067.34;4722333;29;103060;-74
2021/04/25 00:32:32;;;;;;;6.93;3.53;;;;;;;9.69;59.37;99064.69;4721552;29;103239;-73
2021/04/25 00:35:01;;;;;;;3.90;2.93;;;;;;;9.66;59.04;99064.03;4720786;29;104060;-74
2021/04/25 00:37:28;;;;;;;3.23;2.63;;;;;;;9.61;58.86;99064.34;4721041;29;103951;-75
2021/04/25 00:39:55;;;;;;;5.03;2.87;;;;;;;9.66;58.81;99058.75;4723386;29;102856;-73
2021/04/25 00:42:22;;;;;;;6.00;4.00;;;;;;;9.55;59.78;99061.22;4729101;29;103115;-74
2021/04/25 00:44:49;;;;;;;5.73;3.27;;;;;;;9.56;59.05;99055.03;4729497;29;104847;-74
2021/04/25 00:47:16;;;;;;;4.87;3.33;;;;;;;9.45;59.93;99054.84;4719727;29;112538;-74
2021/04/25 00:49:43;;;;;;;3.73;3.23;;;;;;;9.45;59.59;99054.84;4721276;29;102954;-73
2021/04/25 00:52:12;;;;;;;6.30;3.70;;;;;;;9.28;60.61;99045.34;4721757;29;102960;-76
2021/04/25 00:54:40;;;;;;;4.60;3.10;;;;;;;9.24;60.45;99044.66;4721090;29;103994;-78
2021/04/25 00:57:13;;;;;;;5.80;4.20;;;;;;;9.04;61.82;99050.31;4721879;29;103572;-73
2021/04/25 00:59:41;;;;;;;5.87;3.53;;;;;;;8.99;61.53;99048.88;4726559;29;103069;-73
2021/04/25 01:02:08;;;;;;;4.43;2.97;;;;;;;9.12;60.53;99041.97;4722733;29;104191;-74
2021/04/25 01:04:35;;;;;;;4.00;2.43;;;;;;;9.25;59.79;99048.16;4717156;29;103791;-73
2021/04/25 01:07:03;;;;;;;4.97;3.40;;;;;;;9.29;59.72;99052.31;4720750;29;104264;-74
2021/04/25 01:09:31;;;;;;;6.53;3.30;;;;;;;9.21;60.52;99049.28;4719533;29;102913;-74
2021/04/25 01:11:58;;;;;;;4.20;2.97;;;;;;;9.09;60.85;99042.13;4720773;29;103110;-75
2021/04/25 01:14:26;;;;;;;10.27;4.90;;;;;;;8.69;64.01;99049.81;4720692;29;103308;-74
2021/04/25 01:16:53;;;;;;;5.03;3.80;;;;;;;8.72;62.85;99051.41;4728178;29;103765;-73
2021/04/25 01:19:20;;;;;;;4.97;3.17;;;;;;;8.74;62.42;99044.25;4728264;29;102642;-74
2021/04/25 01:21:47;;;;;;;4.53;2.80;;;;;;;8.60;63.38;99045.06;4720906;29;102810;-73
2021/04/25 01:24:14;;;;;;;7.10;3.97;;;;;;;8.65;62.93;99047.41;4721591;29;104126;-76
2021/04/25 01:26:41;;;;;;;5.47;4.03;;;;;;;8.52;63.30;99046.44;4720770;29;103139;-73
2021/04/25 01:29:08;;;;;;;6.87;4.50;;;;;;;8.33;65.04;99056.34;4720177;29;103316;-74
2021/04/25 01:31:35;;;;;;;3.97;3.57;;;;;;;8.40;63.74;99061.16;4720838;29;102925;-74
2021/04/25 01:34:03;;;;;;;4.70;3.53;;;;;;;8.55;63.09;99062.06;4728711;29;104466;-74
2021/04/25 01:36:30;;;;;;;7.10;4.53;;;;;;;8.56;63.61;99061.97;4724971;29;103730;-74
2021/04/25 01:38:59;;;;;;;7.00;3.87;;;;;;;8.49;63.75;99065.91;4721155;29;103127;-74
2021/04/25 01:41:26;;;;;;;5.60;4.30;;;;;;;8.38;64.30;99068.31;4720654;29;104830;-75
2021/04/25 01:43:53;;;;;;;5.50;4.30;;;;;;;8.24;64.84;99072.63;4720740;29;104962;-74
2021/04/25 01:46:21;;;;;;;6.57;3.90;;;;;;;8.32;64.62;99076.56;4720430;29;104137;-74
2021/04/25 01:48:48;;;;;;;8.00;4.83;;;;;;;8.37;64.73;99066.63;4720937;29;102918;-74
2021/04/25 01:51:15;;;;;;;5.30;4.23;;;;;;;8.45;64.10;99069.66;4730928;29;103135;-75
2021/04/25 01:53:42;;;;;;;4.63;3.60;;;;;;;8.60;62.98;99074.03;4728628;29;104683;-73
2021/04/25 01:56:10;;;;;;;4.20;3.47;;;;;;;8.68;62.34;99074.44;4723334;29;103794;-75
2021/04/25 01:58:37;;;;;;;3.87;3.40;;;;;;;8.63;62.79;99071.22;4723304;29;102894;-75
2021/04/25 02:01:05;;;;;;;5.70;4.67;;;;;;;8.30;65.29;99083.72;4720765;29;103054;-73
2021/04/25 02:03:32;;;;;;;6.40;4.20;;;;;;;8.33;64.06;99073.00;4722792;29;104431;-74
2021/04/25 02:06:02;;;;;;;3.20;2.90;;;;;;;8.45;62.74;99074.09;4723491;29;107339;-76
2021/04/25 02:08:29;;;;;;;5.87;3.87;;;;;;;8.49;63.66;99062.44;4725551;29;103419;-74
2021/04/25 02:10:56;;;;;;;4.83;3.97;;;;;;;8.34;64.66;99068.56;4723793;29;103204;-73
2021/04/25 02:13:24;;;;;;;5.87;4.30;;;;;;;8.32;64.54;99068.66;4722955;29;104110;-73
2021/04/25 02:15:52;;;;;;;6.07;4.60;;;;;;;8.29;64.32;99071.47;4723170;29;103822;-73
2021/04/25 02:18:19;;;;;;;7.17;3.70;;;;;;;8.19;64.83;99070.28;4721219;29;103018;-74
2021/04/25 02:20:46;;;;;;;3.43;2.67;;;;;;;8.34;63.11;99058.03;4722151;29;103367;-76
2021/04/25 02:23:13;;;;;;;3.23;2.93;;;;;;;7.98;65.35;99066.22;4722503;29;104362;-74
2021/04/25 02:25:40;;;;;;;6.30;3.90;;;;;;;7.85;66.37;99065.19;4728448;29;104110;-74
2021/04/25 02:28:07;;;;;;;4.67;3.83;;;;;;;7.96;65.30;99058.41;4723174;29;102941;-74
2021/04/25 02:30:37;;;;;;;5.00;4.10;;;;;;;7.95;66.10;99053.22;4723038;29;103148;-75
2021/04/25 02:33:04;;;;;;;8.63;5.10;;;;;;;7.81;66.83;99055.78;4722389;29;103452;-75
2021/04/25 02:35:32;;;;;;;6.27;4.27;;;;;;;7.87;66.26;99058.06;4709079;29;104251;-73
2021/04/25 02:38:00;;;;;;;5.97;4.80;;;;;;;7.81;66.86;99051.38;4723737;29;102963;-74
2021/04/25 02:40:29;;;;;;;5.93;4.30;;;;;;;7.77;67.17;99051.63;4732364;29;102930;-75
2021/04/25 02:42:58;;;;;;;6.63;4.10;;;;;;;7.73;67.00;99050.09;4726084;29;104536;-74
2021/04/25 02:45:28;;;;;;;4.00;3.50;;;;;;;7.85;65.93;99058.16;4713120;29;104984;-74
2021/04/25 02:47:57;;;;;;;5.73;4.10;;;;;;;7.72;67.62;99054.50;4714568;29;103214;-77
2021/04/25 02:50:28;;;;;;;8.03;5.47;;;;;;;7.69;67.13;99051.22;4716993;29;103038;-74
2021/04/25 02:52:55;;;;;;;5.77;4.17;;;;;;;7.54;67.87;99051.13;4721495;29;104386;-73
2021/04/25 02:55:23;;;;;;;7.87;5.07;;;;;;;7.37;68.65;99043.28;4721991;29;104795;-73
2021/04/25 02:57:50;;;;;;;6.60;5.07;;;;;;;7.37;68.55;99048.53;4722145;29;103020;-74
2021/04/25 03:00:20;;;;;;;9.33;5.07;;;;;;;7.27;69.11;99043.88;4724520;29;103808;-74
2021/04/25 03:02:47;;;;;;;5.50;3.80;;;;;;;7.50;67.68;99048.72;4721653;29;104016;-73
2021/04/25 03:05:15;;;;;;;4.60;3.77;;;;;;;7.65;66.85;99042.63;4721193;29;103788;-75
2021/04/25 03:07:43;;;;;;;4.93;4.17;;;;;;;7.72;66.11;99043.16;4721120;29;102889;-73
2021/04/25 03:10:12;;;;;;;6.87;4.70;;;;;;;7.76;65.78;99039.41;4726011;29;103412;-76
2021/04/25 03:12:40;;;;;;;4.20;3.40;;;;;;;7.77;65.76;99033.22;4721403;29;105326;-74
2021/04/25 03:15:09;;;;;;;6.67;4.20;;;;;;;7.82;65.37;99036.44;4718345;29;103821;-75
2021/04/25 03:17:37;;;;;;;6.03;4.73;;;;;;;7.72;66.72;99038.72;4712672;29;103289;-76
2021/04/25 03:20:06;;;;;;;5.23;4.03;;;;;;;7.75;65.36;99038.53;4721989;29;102909;-77
2021/04/25 03:22:34;;;;;;;3.60;3.07;;;;;;;7.73;65.64;99035.16;4722226;29;104123;-74
2021/04/25 03:25:01;;;;;;;7.50;4.00;;;;;;;7.71;65.81;99049.34;4721552;29;105463;-73
2021/04/25 03:27:28;;;;;;;7.50;5.17;;;;;;;7.48;67.45;99050.59;4721966;29;103001;-78
2021/04/25 03:29:55;;;;;;;4.37;3.63;;;;;;;7.39;67.48;99045.81;4721532;29;103110;-74
2021/04/25 03:32:22;;;;;;;6.90;4.13;;;;;;;7.47;67.33;99041.00;4723530;29;103935;-73
2021/04/25 03:34:49;;;;;;;4.87;3.90;;;;;;;7.52;66.20;99045.06;4722585;29;104061;-73
2021/04/25 03:37:16;;;;;;;4.93;3.80;;;;;;;7.58;65.98;99054.41;4724708;29;102610;-74
2021/04/25 03:39:44;;;;;;;6.53;4.83;;;;;;;7.50;66.96;99049.56;4721400;29;103430;-74
2021/04/25 03:42:11;;;;;;;4.77;4.10;;;;;;;7.47;66.72;99054.13;4721745;29;104063;-75
2021/04/25 03:44:38;;;;;;;5.70;4.70;;;;;;;7.45;67.16;99051.59;4717658;29;112026;-73
2021/04/25 03:47:05;;;;;;;7.27;4.50;;;;;;;7.52;66.26;99060.84;4713868;29;103518;-76
2021/04/25 03:49:32;;;;;;;4.30;3.90;;;;;;;7.40;67.55;99056.28;4707043;29;103456;-74
2021/04/25 03:52:01;;;;;;;6.63;4.43;;;;;;;7.38;67.38;99055.47;4721447;29;104531;-77
2021/04/25 03:54:31;;;;;;;7.17;4.03;;;;;;;7.32;67.66;99055.84;4722412;29;103751;-73
2021/04/25 03:57:00;;;;;;;3.90;3.50;;;;;;;7.23;67.72;99060.72;4720754;29;103225;-73
2021/04/25 03:59:27;;;;;;;5.67;3.47;;;;;;;7.27;67.36;99063.09;4720679;29;104341;-73
2021/04/25 04:01:54;;;;;;;5.37;4.33;;;;;;;7.15;68.07;99063.75;4721285;29;103547;-73
2021/04/25 04:04:21;;;;;;;4.27;3.40;;;;;;;7.14;68.02;99067.31;4721008;29;103754;-73
2021/04/25 04:06:48;;;;;;;7.47;4.10;;;;;;;7.10;67.83;99065.78;4727674;29;103816;-76
2021/04/25 04:09:17;;;;;;;3.63;3.07;;;;;;;7.09;67.17;99073.72;4719816;29;103438;-76
2021/04/25 04:11:45;;;;;;;4.73;3.70;;;;;;;7.06;67.58;99058.97;4735954;29;103956;-73
2021/04/25 04:14:13;;;;;;;7.03;4.70;;;;;;;6.77;70.04;99063.13;4736945;29;103811;-76
2021/04/25 04:16:40;;;;;;;5.10;4.07;;;;;;;6.78;69.70;99069.22;4731188;29;103614;-77
2021/04/25 04:19:07;;;;;;;4.97;4.27;;;;;;;6.80;69.43;99067.34;4731527;29;103120;-80
2021/04/25 04:21:34;;;;;;;6.93;5.37;;;;;;;6.62;71.15;99070.94;4733675;29;103826;-73
2021/04/25 04:24:01;;;;;;;8.43;5.03;;;;;;;6.57;71.09;99070.31;4738721;29;104306;-74
2021/04/25 04:26:28;;;;;;;5.17;4.03;;;;;;;6.59;70.67;99071.94;4738833;29;103084;-74
2021/04/25 04:28:55;;;;;;;5.67;4.40;;;;;;;6.56;70.37;99071.22;4739070;29;103266;-76
2021/04/25 04:31:23;;;;;;;6.87;5.10;;;;;;;6.60;70.48;99078.00;4738886;29;103970;-74
2021/04/25 04:33:50;;;;;;;5.13;4.57;;;;;;;6.58;70.69;99077.25;4738244;29;103790;-74
2021/04/25 04:36:18;;;;;;;7.73;5.30;;;;;;;6.48;71.66;99078.66;4743389;29;102913;-75
2021/04/25 04:38:45;;;;;;;7.37;5.00;;;;;;;6.46;71.78;99083.97;4746276;29;103691;-75
2021/04/25 04:41:12;;;;;;;5.10;4.60;;;;;;;6.63;70.44;99085.75;4748787;29;103185;-74
2021/04/25 04:43:39;;;;;;;7.43;4.97;;;;;;;6.68;70.84;99083.75;4737965;29;105199;-74
2021/04/25 04:46:06;;;;;;;7.70;5.63;;;;;;;6.59;71.64;99092.94;4728493;29;103134;-75
2021/04/25 04:48:34;;;;;;;5.80;4.50;;;;;;;6.59;71.50;99092.94;4735342;29;102806;-75
2021/04/25 04:51:01;;;;;;;9.10;5.80;;;;;;;6.48;72.56;99091.78;4738540;29;103796;-73
2021/04/25 04:53:28;;;;;;;6.43;5.03;;;;;;;6.57;71.90;99097.41;4738270;29;103832;-74
2021/04/25 04:55:55;;;;;;;8.00;4.57;;;;;;;6.75;70.21;99106.13;4738201;29;102899;-76
2021/04/25 04:58:22;;;;;;;5.83;4.77;;;;;;;6.82;70.41;99110.16;4740780;29;103797;-72
2021/04/25 05:00:49;;;;;;;7.60;4.40;;;;;;;6.88;70.66;99109.84;4741853;29;103993;-73
2021/04/25 05:03:21;;;;;;;6.37;4.57;;;;;;;6.73;72.08;99102.75;4738334;29;103706;-78
2021/04/25 05:05:50;;;;;;;6.70;5.13;;;;;;;6.72;72.29;99107.16;4720019;29;103017;-74
2021/04/25 05:08:17;;;;;;;5.10;4.57;;;;;;;6.89;71.13;99114.16;4723411;29;103103;-75
2021/04/25 05:10:44;;;;;;;8.53;5.33;;;;;;;6.88;71.79;99104.56;4741814;29;103321;-73
2021/04/25 05:13:11;;;;;;;5.53;4.53;;;;;;;7.05;70.79;99104.56;4742320;29;103822;-84
2021/04/25 05:15:39;;;;;;;5.67;4.60;;;;;;;7.17;70.16;99124.97;4743523;29;103018;-84
2021/04/25 05:18:06;;;;;;;6.13;4.30;;;;;;;7.31;69.65;99117.22;4739200;29;103412;-83
2021/04/25 05:20:33;;;;;;;6.70;5.23;;;;;;;7.34;69.84;99121.44;4737282;29;104302;-84
2021/04/25 05:23:02;;;;;;;7.27;4.87;;;;;;;7.40;69.89;99122.00;4736140;29;103981;-81
2021/04/25 05:25:29;;;;;;;8.57;5.60;;;;;;;7.35;71.23;99110.03;4721638;29;103362;-78
2021/04/25 05:27:56;;;;;;;7.57;5.07;;;;;;;7.46;70.21;99121.66;4739536;29;104430;-84
2021/04/25 05:30:23;;;;;;;8.80;5.60;;;;;;;7.56;70.06;99111.50;4739318;29;104453;-82
2021/04/25 05:32:50;;;;;;;7.33;5.50;;;;;;;7.64;69.79;99124.22;4755044;29;103243;-84
2021/04/25 05:35:18;;;;;;;6.87;5.00;;;;;;;7.74;69.98;99130.69;4754776;29;103505;-86
2021/04/25 05:37:44;;;;;;;8.47;6.33;;;;;;;7.66;70.62;99127.63;4724731;29;104036;-87
2021/04/25 05:40:14;;;;;;;8.40;4.97;;;;;;;7.80;70.13;99125.13;4748397;29;103342;-82
2021/04/25 05:42:41;;;;;;;6.93;4.97;;;;;;;7.78;70.50;99129.59;4742849;29;103280;-81
2021/04/25 05:45:19;;;;;;;6.63;4.93;;;;;;;7.93;70.12;99141.91;4736625;29;103016;-74
2021/04/25 05:47:48;;;;;;;7.13;5.23;;;;;;;8.05;69.40;99133.38;4735035;29;103035;-83
2021/04/25 05:50:16;;;;;;;5.37;4.73;;;;;;;8.15;68.87;99131.91;4741829;29;103550;-83
2021/04/25 05:52:43;;;;;;;7.23;5.50;;;;;;;8.18;68.92;99134.38;4742159;29;104254;-81
2021/04/25 05:55:10;;;;;;;8.07;6.00;;;;;;;8.12;68.72;99137.34;4739883;29;103169;-86
2021/04/25 05:57:38;;;;;;;8.07;5.70;;;;;;;8.11;69.72;99141.75;4737521;29;103191;-85
2021/04/25 06:00:08;;;;;;;9.13;6.57;;;;;;;7.81;69.48;99153.09;4737503;29;104975;-83
2021/04/25 06:02:35;;;;;;;12.37;7.77;;;;;;;7.91;70.82;99149.06;4738494;29;103668;-84
2021/04/25 06:05:03;;;;;;;9.63;7.50;;;;;;;8.10;70.40;99149.75;4741353;29;103499;-87
2021/04/25 06:07:30;;;;;;;9.33;6.80;;;;;;;8.09;70.20;99158.56;4741287;29;102631;-83
2021/04/25 06:09:57;;;;;;;9.80;7.10;;;;;;;8.23;70.09;99156.00;4736043;29;103859;-81
2021/04/25 06:12:24;;;;;;;7.43;5.93;;;;;;;8.32;69.89;99154.69;4738932;29;104540;-76
2021/04/25 06:14:52;;;;;;;9.57;6.77;;;;;;;8.55;69.32;99146.34;4739460;29;103097;-83
2021/04/25 06:17:19;;;;;;;7.53;6.13;;;;;;;8.78;67.95;99150.31;4737990;29;102762;-86
2021/04/25 06:19:46;;;;;;;8.90;6.23;;;;;;;8.92;67.82;99147.72;4737881;29;103905;-82
2021/04/25 06:22:14;;;;;;;10.60;6.70;;;;;;;9.10;67.29;99150.09;4740104;29;105124;-80
2021/04/25 06:24:41;;;;;;;8.20;6.40;;;;;;;8.97;67.19;99157.03;4735525;29;103348;-82
2021/04/25 06:27:09;;;;;;;9.07;7.60;;;;;;;8.87;67.11;99149.78;4741591;29;103047;-89
2021/04/25 06:29:36;;;;;;;9.80;7.07;;;;;;;9.22;66.71;99143.25;4738656;29;110210;-88
2021/04/25 06:32:05;;;;;;;12.07;7.93;;;;;;;9.34;65.50;99158.34;4736070;29;106088;-88
2021/04/25 06:34:33;;;;;;;11.43;7.47;;;;;;;8.80;67.05;99156.31;4738608;29;102908;-80
2021/04/25 06:37:00;;;;;;;13.97;8.17;;;;;;;8.83;67.42;99157.00;4741538;29;103109;-82
2021/04/25 06:39:27;;;;;;;11.67;7.70;;;;;;;8.72;66.99;99155.00;4743008;29;103518;-82
2021/04/25 06:41:54;;;;;;;10.10;6.83;;;;;;;9.38;65.93;99159.84;4749280;29;104621;-82
2021/04/25 06:44:21;;;;;;;10.97;8.43;;;;;;;9.22;66.12;99162.56;4736375;29;103205;-80
2021/04/25 06:46:48;;;;;;;11.13;7.83;;;;;;;9.08;67.84;99161.69;4739705;29;103043;-80
2021/04/25 06:49:16;;;;;;;9.27;8.10;;;;;;;9.23;66.29;99166.06;4738124;29;104860;-82
2021/04/25 06:51:43;;;;;;;11.47;7.63;;;;;;;9.68;64.93;99170.34;4738677;29;103839;-77
2021/04/25 06:54:10;;;;;;;15.73;8.90;;;;;;;9.43;65.32;99165.69;4728801;29;103974;-82
2021/04/25 06:56:38;;;;;;;10.07;8.57;;;;;;;9.10;65.87;99167.69;4738908;29;103167;-80
2021/04/25 06:59:05;;;;;;;11.77;8.57;;;;;;;9.16;66.70;99165.56;4738589;29;104003;-80
2021/04/25 07:01:33;;;;;;;11.60;8.83;;;;;;;9.71;64.76;99163.06;4737848;29;104545;-81
2021/04/25 07:04:00;;;;;;;9.50;7.73;;;;;;;10.04;64.39;99159.28;4738664;29;103102;-79
2021/04/25 07:06:29;;;;;;;13.90;9.20;;;;;;;9.75;64.28;99166.38;4737424;29;103408;-79
2021/04/25 07:08:56;;;;;;;12.13;9.73;;;;;;;9.70;64.44;99171.94;4721334;29;107013;-80
2021/04/25 07:11:24;;;;;;;10.23;8.90;;;;;;;10.17;63.67;99170.78;4742136;29;104367;-82
2021/04/25 07:13:51;;;;;;;10.97;8.43;;;;;;;10.27;63.43;99172.75;4737706;29;102688;-84
2021/04/25 07:16:18;;;;;;;11.80;9.63;;;;;;;10.23;62.93;99178.34;4738540;29;103397;-80
2021/04/25 07:18:45;;;;;;;12.70;9.67;;;;;;;10.66;62.22;99172.00;4738564;29;105080;-80
2021/04/25 07:21:12;;;;;;;13.27;9.50;;;;;;;11.09;61.81;99166.53;4738939;29;103735;-80
2021/04/25 07:23:40;;;;;;;13.23;9.97;;;;;;;10.39;61.71;99165.84;4742434;29;103809;-78
2021/04/25 07:26:09;;;;;;;12.40;10.33;;;;;;;10.53;61.37;99173.72;4737938;29;103283;-78
2021/04/25 07:28:37;;;;;;;12.57;10.23;;;;;;;10.60;61.36;99168.91;4739069;29;103960;-79
2021/04/25 07:31:05;;;;;;;9.87;8.33;;;;;;;11.13;60.49;99165.34;4740066;29;103965;-79
2021/04/25 07:33:32;;;;;;;14.93;9.93;;;;;;;11.42;60.24;99164.25;4738936;29;103092;-80
2021/04/25 07:36:02;;;;;;;13.67;10.23;;;;;;;11.00;61.03;99163.53;4737784;29;103175;-82
2021/04/25 07:38:29;;;;;;;12.13;9.80;;;;;;;10.87;60.75;99162.66;4737353;29;104420;-81
2021/04/25 07:40:57;;;;;;;14.17;10.10;;;;;;;11.31;59.41;99161.47;4742827;29;103900;-79
2021/04/25 07:43:24;;;;;;;10.57;9.47;;;;;;;11.48;59.98;99163.84;4720187;29;103218;-82
2021/04/25 07:45:51;;;;;;;15.40;10.43;;;;;;;11.82;58.98;99162.34;4731764;29;103272;-77
2021/04/25 07:48:18;;;;;;;11.43;10.20;;;;;;;11.47;59.10;99165.63;4735316;29;106982;-80
2021/04/25 07:50:46;;;;;;;14.63;10.20;;;;;;;11.81;58.14;99169.47;4731077;29;108163;-81
2021/04/25 07:53:15;;;;;;;12.00;10.17;;;;;;;11.53;58.52;99161.72;4718763;29;103389;-80
2021/04/25 07:55:42;;;;;;;15.23;10.17;;;;;;;12.31;57.00;99159.72;4734412;29;103335;-81
2021/04/25 07:58:10;;;;;;;12.80;9.53;;;;;;;13.28;55.29;99148.88;4732205;29;105554;-82
2021/04/25 08:00:37;;;;;;;15.33;9.63;;;;;;;13.81;52.91;99149.19;4738636;29;103729;-78
2021/04/25 08:03:05;;;;;;;14.00;10.10;;;;;;;12.89;51.97;99165.09;4736081;29;103193;-82
2021/04/25 08:05:35;;;;;;;14.47;10.97;;;;;;;12.89;55.00;99143.88;4744621;29;103180;-81
2021/04/25 08:08:05;;;;;;;15.97;11.03;;;;;;;12.67;57.57;99151.75;4742297;29;104040;-75
2021/04/25 08:10:34;;;;;;;14.70;11.97;;;;;;;13.55;51.69;99153.03;4739257;29;105437;-83
2021/04/25 08:13:02;;;;;;;13.73;10.57;;;;;;;14.48;52.23;99153.50;4722566;29;102866;-81
2021/04/25 08:15:30;;;;;;;11.63;10.00;;;;;;;13.66;53.68;99153.91;4737555;29;103157;-81
2021/04/25 08:17:57;;;;;;;12.83;11.17;;;;;;;13.80;51.57;99156.31;4737469;29;105064;-79
2021/04/25 08:20:25;;;;;;;12.30;10.93;;;;;;;13.68;52.38;99156.41;4748030;29;103803;-81
2021/04/25 08:22:55;;;;;;;13.23;11.37;;;;;;;13.58;52.42;99161.59;4722725;29;103083;-81
2021/04/25 08:25:23;;;;;;;12.57;11.00;;;;;;;13.17;53.01;99159.44;4737336;29;104028;-81
2021/04/25 08:27:50;;;;;;;13.03;11.00;;;;;;;13.74;52.83;99156.78;4737805;29;103909;-81
2021/04/25 08:30:20;;;;;;;12.77;10.57;;;;;;;15.04;50.23;99153.31;4738712;29;103201;-81
2021/04/25 08:32:48;;;;;;;12.73;8.70;;;;;;;16.45;47.53;99141.88;4738717;29;103016;-82
2021/04/25 08:35:18;;;;;;;14.23;11.13;;;;;;;13.77;50.54;99155.69;4737779;29;103197;-82
2021/04/25 08:37:45;;;;;;;12.60;10.80;;;;;;;14.80;50.84;99153.53;4735452;29;103908;-81
2021/04/25 08:40:13;;;;;;;14.73;11.90;;;;;;;14.52;50.24;99149.63;4752396;29;105252;-82
2021/04/25 08:42:41;;;;;;;13.77;9.23;;;;;;;16.37;48.33;99143.53;4738339;29;102922;-84
2021/04/25 08:45:09;;;;;;;14.87;10.27;;;;;;;13.63;51.28;99150.63;4722254;29;103338;-81
2021/04/25 08:47:51;;;;;;;15.70;11.30;;;;;;;13.83;51.39;99160.53;4721887;29;105144;-83
2021/04/25 08:50:20;;;;;;;12.33;10.27;;;;;;;14.13;51.52;99168.75;4738231;29;105095;-81
2021/04/25 08:52:47;;;;;;;11.90;9.97;;;;;;;16.19;48.33;99159.34;4734393;29;102695;-81
2021/04/25 08:55:15;;;;;;;11.57;8.53;;;;;;;16.67;46.64;99154.19;4752596;29;103262;-80
2021/04/25 08:57:42;;;;;;;14.20;10.77;;;;;;;15.07;47.66;99156.56;4723191;29;104081;-81
2021/04/25 09:00:11;;;;;;;10.70;9.60;;;;;;;13.91;50.22;99158.13;4732862;29;104600;-81
2021/04/25 09:02:40;;;;;;;10.87;8.17;;;;;;;14.94;49.14;99155.03;4740888;29;103057;-79
2021/04/25 09:05:07;;;;;;;10.73;8.53;;;;;;;15.47;49.17;99148.75;4741601;29;103141;-80
2021/04/25 09:07:35;;;;;;;10.30;8.77;;;;;;;17.20;45.24;99151.94;4749828;29;104038;-79
2021/04/25 09:10:06;;;;;;;12.37;8.07;;;;;;;17.64;44.72;99143.34;4741232;29;110718;-79
2021/04/25 09:12:39;;;;;;;13.57;8.73;;;;;;;15.71;44.57;99147.63;4738709;29;103376;-82
2021/04/25 09:15:26;;;;;;;9.03;7.87;;;;;;;15.30;47.61;99149.31;4741196;29;103123;-80
2021/04/25 09:17:57;;;;;;;13.07;9.07;;;;;;;15.33;46.46;99149.03;4740138;29;103881;-79
2021/04/25 09:20:53;;;;;;;8.23;6.70;;;;;;;17.23;43.89;99139.16;4740209;29;104233;-79
2021/04/25 09:23:30;;;;;;;9.20;7.40;;;;;;;17.03;45.18;99136.63;4738590;29;103242;-79
2021/04/25 09:26:00;;;;;;;10.03;8.30;;;;;;;16.06;43.91;99145.41;4740002;29;103140;-80
2021/04/25 09:28:27;;;;;;;10.07;8.70;;;;;;;15.96;46.06;99139.19;4739780;29;103352;-81
2021/04/25 09:30:59;;;;;;;8.93;8.03;;;;;;;16.61;44.40;99131.56;4755121;29;103282;-81
2021/04/25 09:33:29;;;;;;;9.52;8.35;;;;;;;16.98;43.83;99129.03;4743082;29;103305;-77
2021/04/25 09:35:58;;;;;;;10.95;8.55;;;;;;;16.60;43.90;99129.88;4738817;29;102928;-77
2021/04/25 09:38:34;;;;;;;10.55;8.85;;;;;;;15.15;45.82;99144.44;4739796;29;103720;-79
2021/04/25 09:41:02;;;;;;;8.98;7.40;;;;;;;16.11;44.22;99129.88;4751923;29;104073;-81
2021/04/25 09:43:48;;;;;;;9.88;8.00;;;;;;;16.08;47.12;99132.81;4738755;29;103057;-77
2021/04/25 09:46:50;;;;;;;10.68;7.60;;;;;;;15.51;45.85;99136.88;4744909;29;103697;-76
2021/04/25 09:49:39;;;;;;;8.75;7.38;;;;;;;15.96;45.05;99134.72;4737293;29;103533;-80
2021/04/25 09:52:07;;;;;;;9.30;7.43;;;;;;;15.99;46.15;99128.28;4747189;29;103513;-77
2021/04/25 09:54:36;;;;;;;7.55;6.60;;;;;;;16.70;44.16;99133.38;4740658;29;104564;-77
2021/04/25 09:57:04;;;;;;;10.75;8.45;;;;;;;15.87;44.73;99134.66;4743855;29;103174;-77
2021/04/25 09:59:31;;;;;;;10.27;8.07;;;;;;;16.98;44.25;99123.69;4727333;29;104397;-78
2021/04/25 10:02:09;;;;;;;8.77;7.88;;;;;;;16.04;44.56;99120.72;4734234;29;104868;-77
2021/04/25 10:04:38;;;;;;;8.82;7.93;;;;;;;15.91;45.33;99115.63;4738658;29;103437;-77
2021/04/25 10:07:08;;;;;;;9.75;7.75;;;;;;;16.16;45.97;99116.97;4745682;29;103033;-78
2021/04/25 10:09:38;;;;;;;8.50;6.80;;;;;;;17.34;43.55;99122.13;4731892;29;107185;-77
2021/04/25 10:12:06;;;;;;;8.00;7.28;;;;;;;16.65;43.74;99111.63;4716117;29;106814;-77
2021/04/25 10:14:34;;;;;;;9.70;7.53;;;;;;;16.65;44.38;99114.28;4706939;29;103857;-77
2021/04/25 10:17:04;;;;;;;7.45;6.65;;;;;;;16.77;43.42;99105.19;4716346;29;103439;-77
2021/04/25 10:19:32;;;;;;;8.57;7.65;;;;;;;15.87;45.00;99114.19;4717252;29;103990;-78
2021/04/25 10:21:59;;;;;;;7.63;6.63;;;;;;;17.58;43.45;99105.66;4717837;29;104008;-81
2021/04/25 10:24:28;;;;;;;9.73;7.35;;;;;;;17.48;42.06;99105.66;4714807;29;103437;-75
2021/04/25 10:27:02;;;;;;;8.05;6.88;;;;;;;17.95;41.42;99106.50;4719596;29;103120;-75
2021/04/25 10:29:36;;;;;;;10.73;7.85;;;;;;;17.99;41.40;99109.75;4709156;29;103920;-77
2021/04/25 10:32:06;;;;;;;10.30;6.10;;;;;;;18.51;41.90;99107.22;4710729;29;105656;-77
2021/04/25 10:34:34;;;;;;;6.95;6.22;;;;;;;16.08;42.38;99101.63;4717771;29;103580;-82
2021/04/25 10:37:08;;;;;;;9.68;6.57;;;;;;;16.48;43.07;99108.75;4713169;29;103374;-80
2021/04/25 10:39:38;;;;;;;7.55;6.43;;;;;;;16.99;41.68;99095.19;4707086;29;104882;-79
2021/04/25 10:42:26;;;;;;;8.82;6.40;;;;;;;16.97;41.72;99097.16;4699824;29;105179;-77
2021/04/25 10:45:16;;;;;;;6.60;5.63;;;;;;;16.31;42.39;99098.78;4715744;29;103688;-83
2021/04/25 10:47:46;;;;;;;9.35;5.63;;;;;;;18.23;40.70;99089.47;4714704;29;103999;-80
2021/04/25 10:50:43;;;;;;;6.47;5.45;;;;;;;16.45;41.93;99099.19;4725669;29;103368;-83
2021/04/25 10:53:31;;;;;;;6.32;4.68;;;;;;;17.47;41.21;99092.44;4716565;29;103810;-78
2021/04/25 10:56:29;;;;;;;7.05;5.50;;;;;;;16.29;41.55;99082.06;4709340;29;103421;-85
2021/04/25 10:59:33;;;;;;;7.82;5.57;;;;;;;16.86;42.60;99089.31;4716789;29;104547;-80
2021/04/25 11:02:01;;;;;;;6.57;5.35;;;;;;;16.89;41.77;99081.03;4713741;29;104459;-76
2021/04/25 11:04:55;;;;;;;5.65;5.15;;;;;;;17.01;41.33;99087.91;4715352;29;104357;-79
2021/04/25 11:07:48;;;;;;;5.93;5.30;;;;;;;16.23;42.00;99088.78;4719822;29;103370;-81
2021/04/25 11:10:22;;;;;;;6.22;5.20;;;;;;;15.88;41.83;99083.06;4717554;29;103244;-76
2021/04/25 11:12:50;;;;;;;7.07;5.22;;;;;;;15.24;41.03;99093.91;4719038;29;104139;-81
2021/04/25 11:15:49;;;;;;;5.70;4.97;;;;;;;16.84;40.36;99080.59;4717977;29;105178;-78
2021/04/25 11:18:48;;;;;;;6.78;4.50;;;;;;;16.63;39.49;99084.25;4709145;29;103297;-80
2021/04/25 11:21:49;;;;;;;4.40;3.97;;;;;;;16.93;38.07;99077.91;4684085;29;103080;-80
2021/04/25 11:24:43;;;;;;;5.22;4.22;;;;;;;17.54;37.27;99082.91;4716924;29;104482;-81
2021/04/25 11:27:34;;;;;;;6.15;4.45;;;;;;;17.02;37.86;99081.56;4718227;29;104040;-86
2021/04/25 11:30:03;;;;;;;4.82;4.30;;;;;;;15.56;40.33;99078.72;4715930;29;104500;-87
2021/04/25 11:32:33;;;;;;;5.80;4.65;;;;;;;15.64;40.29;99086.91;4718140;29;103383;-88
2021/04/25 11:35:13;;;;;;;6.95;4.38;;;;;;;16.14;40.58;99078.97;4718403;29;105081;-74
2021/04/25 11:37:45;;;;;;;5.80;4.00;;;;;;;18.24;36.57;99072.47;4720238;29;105950;-81